Time;durP1;ratioP1;P1;durP2;ratioP2;P2;SDS_P1;SDS_P2;PMS_P1;PMS_P2;Temp;Humidity;BMP_temperature;BMP_pressure;BME280_temperature;BME280_humidity;BME280_pressure;Samples;Min_cycle;Max_cycle;Signal;HPM_P1;HPM_P2
2022/06/16 00:00:45;346030.00;1.15;597.04;91720.00;0.31;159.28;;;;;21.20;1.00;;;;;;2276633;61;1203;-85
2022/06/16 00:03:12;183294.00;0.61;317.16;14090.00;0.05;25.03;;;;;21.30;1.00;;;;;;2276667;61;1059;-84
2022/06/16 00:05:43;48433.00;0.16;84.48;0.00;0.00;0.62;;;;;21.40;1.00;;;;;;2276587;61;1102;-85
2022/06/16 00:08:12;124218.00;0.41;215.36;0.00;0.00;0.62;;;;;21.60;1.00;;;;;;2276588;61;1499;-85
2022/06/16 00:11:16;33758.00;0.11;59.09;0.00;0.00;0.62;;;;;21.70;1.00;;;;;;2276585;61;1156;-84
2022/06/16 00:13:31;104428.00;0.35;181.21;0.00;0.00;0.62;;;;;21.80;1.00;;;;;;2276511;61;1346;-86
2022/06/16 00:15:58;0.00;0.00;0.62;0.00;0.00;0.62;;;;;21.70;1.00;;;;;;2276453;61;1994;-84
2022/06/16 00:18:26;105105.00;0.35;182.38;0.00;0.00;0.62;;;;;21.70;1.00;;;;;;2276586;61;1146;-85
2022/06/16 00:20:53;12028.00;0.04;21.46;0.00;0.00;0.62;;;;;21.70;1.00;;;;;;2276560;61;1067;-85
2022/06/16 00:23:20;454945.00;1.52;784.29;19440.00;0.06;34.30;;;;;22.00;1.00;;;;;;2276441;61;2198;-86
2022/06/16 00:25:47;272343.00;0.91;470.37;0.00;0.00;0.62;;;;;22.20;1.00;;;;;;2276276;61;1115;-85
2022/06/16 00:28:14;1488057.00;4.96;2620.67;306296.00;1.02;528.74;;;;;22.40;1.00;;;;;;2276488;61;1282;-84
2022/06/16 00:30:43;117540528.00;391.80;65779848.00;74292.00;0.25;129.18;;;;;22.80;1.00;;;;;;2276452;61;2187;-85
2022/06/16 00:33:10;114274.00;0.38;198.20;0.00;0.00;0.62;;;;;23.10;1.00;;;;;;2276276;61;1135;-83
2022/06/16 00:35:38;120184.00;0.40;208.40;0.00;0.00;0.62;;;;;23.10;1.00;;;;;;2276118;61;1926;-85
2022/06/16 00:38:04;331361.00;1.10;571.83;30461.00;0.10;53.38;;;;;23.20;1.00;;;;;;2276532;61;1395;-85
2022/06/16 00:40:32;62747.00;0.21;109.23;0.00;0.00;0.62;;;;;23.30;1.00;;;;;;2276457;61;1641;-86
2022/06/16 00:42:59;225962.00;0.75;390.60;0.00;0.00;0.62;;;;;23.40;1.00;;;;;;2276134;61;1128;-85
2022/06/16 00:45:50;650171.00;2.17;1120.93;75283.00;0.25;130.89;;;;;23.30;1.00;;;;;;2276141;61;1102;-85
2022/06/16 00:48:23;352687.00;1.18;608.48;47596.00;0.16;83.03;;;;;23.10;1.00;;;;;;2276543;61;1530;-86
2022/06/16 00:50:55;1558124.00;5.19;2752.97;63165.00;0.21;109.95;;;;;22.90;1.00;;;;;;2276576;61;1118;-85
2022/06/16 00:53:23;896267.00;2.99;1549.56;112957.00;0.38;195.93;;;;;22.90;1.00;;;;;;2276501;61;1115;-87
2022/06/16 00:55:51;337755.00;1.13;582.82;83029.00;0.28;144.27;;;;;22.70;1.00;;;;;;2276462;61;1921;-86
2022/06/16 00:58:18;111707.00;0.37;193.78;2803.00;0.01;5.48;;;;;22.40;1.00;;;;;;2276474;61;1337;-87
2022/06/16 01:00:47;0.00;0.00;0.62;0.00;0.00;0.62;;;;;22.30;1.00;;;;;;2276394;61;1138;-86
2022/06/16 01:04:51;62767.00;0.21;109.26;0.00;0.00;0.62;;;;;22.20;1.00;;;;;;2276279;61;1117;-85
2022/06/16 01:06:20;98161.00;0.33;170.40;0.00;0.00;0.62;;;;;21.80;1.00;;;;;;2275848;61;1351;-84
2022/06/16 01:08:51;181153.00;0.60;313.48;0.00;0.00;0.62;;;;;21.60;1.00;;;;;;2276034;61;1113;-86
2022/06/16 01:14:26;51611.00;0.17;89.97;0.00;0.00;0.62;;;;;21.00;1.00;;;;;;2276483;61;649;-83
2022/06/16 01:17:03;261698.00;0.87;452.07;0.00;0.00;0.62;;;;;20.90;1.00;;;;;;2275969;61;1924;-85
2022/06/16 01:19:50;655549.00;2.19;1130.24;230979.00;0.77;399.23;;;;;20.80;1.00;;;;;;2275991;61;985;-85
2022/06/16 01:22:35;236732.00;0.79;409.13;0.00;0.00;0.62;;;;;21.00;1.00;;;;;;2276237;61;1060;-85
2022/06/16 01:25:16;64244.00;0.21;111.81;0.00;0.00;0.62;;;;;21.10;1.00;;;;;;2276439;61;2219;-84
2022/06/16 01:28:09;310198.00;1.03;535.45;0.00;0.00;0.62;;;;;21.30;1.00;;;;;;2276312;61;2418;-84
2022/06/16 01:30:45;913768.00;3.05;1580.31;4320.00;0.01;8.11;;;;;21.40;1.00;;;;;;2276364;61;1155;-85
2022/06/16 01:33:20;1270294.00;4.23;2217.84;78188.00;0.26;135.91;;;;;21.50;1.00;;;;;;2276327;61;1081;-86
2022/06/16 01:35:56;991515.00;3.31;1717.45;56884.00;0.19;99.09;;;;;21.40;1.00;;;;;;2276352;61;1982;-86
2022/06/16 01:38:33;504056.00;1.68;868.81;65758.00;0.22;114.43;;;;;21.30;1.00;;;;;;2275989;61;1095;-85
2022/06/16 01:41:10;575134.00;1.92;991.30;189313.00;0.63;327.53;;;;;21.40;1.00;;;;;;2276274;61;1113;-85
2022/06/16 01:43:44;384605.00;1.28;663.34;93106.00;0.31;161.67;;;;;21.40;1.00;;;;;;2276286;61;1074;-85
2022/06/16 01:46:18;232027.00;0.77;401.04;0.00;0.00;0.62;;;;;21.90;1.00;;;;;;2276201;61;2150;-83
2022/06/16 01:48:50;42855.00;0.14;74.83;0.00;0.00;0.62;;;;;22.10;1.00;;;;;;2276282;61;1071;-84
2022/06/16 01:51:24;146128.00;0.49;253.13;0.00;0.00;0.62;;;;;22.40;1.00;;;;;;2276190;61;1161;-85
2022/06/16 01:53:57;482185.00;1.61;831.16;182784.00;0.61;316.28;;;;;22.40;1.00;;;;;;2276205;61;998;-85
2022/06/16 01:56:30;417853.00;1.39;720.50;15752.00;0.05;27.91;;;;;22.30;1.00;;;;;;2276256;61;1910;-85
2022/06/16 01:59:00;616785.00;2.06;1063.21;16902.00;0.06;29.90;;;;;22.50;1.00;;;;;;2276342;61;1237;-84
2022/06/16 02:01:31;1717354.00;5.72;3059.19;51282.00;0.17;89.40;;;;;22.50;1.00;;;;;;2276248;61;1058;-86
2022/06/16 02:04:06;1202843.00;4.01;2095.36;141964.00;0.47;245.96;;;;;22.50;1.00;;;;;;2276314;61;1144;-85
2022/06/16 02:06:38;1069184.00;3.56;1855.40;118619.00;0.40;205.70;;;;;22.20;1.00;;;;;;2276283;61;1360;-85
2022/06/16 02:09:10;319066.00;1.06;550.69;88348.00;0.29;153.46;;;;;21.40;1.00;;;;;;2276270;61;1094;-85
2022/06/16 02:11:40;78244.00;0.26;136.00;0.00;0.00;0.62;;;;;21.20;1.00;;;;;;2276221;61;1141;-85
2022/06/16 02:14:14;417450.00;1.39;719.81;23281.00;0.08;40.95;;;;;20.80;1.00;;;;;;2276270;61;1146;-84
2022/06/16 02:16:43;44512.00;0.15;77.69;0.00;0.00;0.62;;;;;20.90;1.00;;;;;;2276122;61;2012;-85
2022/06/16 02:19:13;35874.00;0.12;62.75;0.00;0.00;0.62;;;;;21.30;1.00;;;;;;2276212;61;1195;-84
2022/06/16 02:21:42;173763.00;0.58;300.75;0.00;0.00;0.62;;;;;21.60;1.00;;;;;;2276318;61;1118;-86
2022/06/16 02:24:13;1476098.00;4.92;2598.22;59160.00;0.20;103.02;;;;;21.70;1.00;;;;;;2276222;61;1250;-85
2022/06/16 02:26:41;801253.00;2.67;1383.31;30820.00;0.10;54.00;;;;;22.00;1.00;;;;;;2276165;61;1317;-84
2022/06/16 02:29:25;71516.00;0.24;124.38;0.00;0.00;0.62;;;;;22.30;1.00;;;;;;2276196;61;1051;-86
2022/06/16 02:32:08;207302.00;0.69;358.49;46012.00;0.15;80.29;;;;;21.70;1.00;;;;;;2276237;61;1045;-85
2022/06/16 02:34:46;88848.00;0.30;154.32;0.00;0.00;0.62;;;;;21.00;1.00;;;;;;2276185;61;1173;-85
2022/06/16 02:37:31;28424.00;0.09;49.86;0.00;0.00;0.62;;;;;20.80;1.00;;;;;;2276133;61;1923;-85
2022/06/16 02:40:17;31815.00;0.11;55.72;0.00;0.00;0.62;;;;;21.10;1.00;;;;;;2276344;61;997;-84
2022/06/16 02:42:54;60598.00;0.20;105.51;0.00;0.00;0.62;;;;;21.60;1.00;;;;;;2276913;61;1148;-84
2022/06/16 02:45:35;275324.00;0.92;475.50;0.00;0.00;0.62;;;;;21.70;1.00;;;;;;2276933;61;1238;-85
2022/06/16 02:48:12;914931.00;3.05;1582.36;100167.00;0.33;173.86;;;;;21.00;1.00;;;;;;2276244;61;1443;-85
2022/06/16 02:50:48;196354.00;0.65;339.65;0.00;0.00;0.62;;;;;20.60;1.00;;;;;;2276518;61;925;-84
2022/06/16 02:53:29;59339.00;0.20;103.33;0.00;0.00;0.62;;;;;20.60;1.00;;;;;;2276390;61;1076;-83
2022/06/16 02:56:06;1527596.00;5.09;2695.15;88604.00;0.30;153.90;;;;;20.70;1.00;;;;;;2276810;61;1980;-85
2022/06/16 02:58:37;687465.00;2.29;1185.51;36977.00;0.12;64.66;;;;;20.20;1.00;;;;;;2276881;61;1094;-84
2022/06/16 03:01:07;205068.00;0.68;354.65;83656.00;0.28;145.35;;;;;19.60;1.00;;;;;;2276808;61;1176;-84
2022/06/16 03:03:36;33728.00;0.11;59.04;0.00;0.00;0.62;;;;;19.50;1.00;;;;;;2276802;61;976;-85
2022/06/16 03:06:04;375558.00;1.25;647.79;78694.00;0.26;136.78;;;;;19.90;1.00;;;;;;2276770;61;1415;-84
2022/06/16 03:08:37;84373.00;0.28;146.59;0.00;0.00;0.62;;;;;20.40;1.00;;;;;;2276777;61;1488;-87
2022/06/16 03:11:04;72031.00;0.24;125.27;0.00;0.00;0.62;;;;;20.20;1.00;;;;;;2276763;61;1534;-85
2022/06/16 03:13:32;0.00;0.00;0.62;0.00;0.00;0.62;;;;;19.90;1.00;;;;;;2276720;61;932;-85
2022/06/16 03:16:02;870723.00;2.90;1504.76;13434.00;0.04;23.90;;;;;19.50;1.00;;;;;;2276800;61;1919;-84
2022/06/16 03:18:29;1145354.00;3.82;1991.73;50647.00;0.17;88.31;;;;;19.10;1.00;;;;;;2276761;61;1094;-85
2022/06/16 03:20:57;508067.00;1.69;875.71;11849.00;0.04;21.15;;;;;19.30;1.00;;;;;;2276781;61;1083;-86
2022/06/16 03:23:24;137954.00;0.46;239.04;0.00;0.00;0.62;;;;;19.50;1.00;;;;;;2276729;61;1145;-87
2022/06/16 03:25:51;0.00;0.00;0.62;0.00;0.00;0.62;;;;;19.40;1.00;;;;;;2276783;61;1142;-85
2022/06/16 03:28:18;226138.00;0.75;390.90;0.00;0.00;0.62;;;;;19.10;1.00;;;;;;2276748;61;1310;-84
2022/06/16 03:30:45;305800.00;1.02;527.89;55412.00;0.18;96.54;;;;;18.70;1.00;;;;;;2276556;61;1086;-86
2022/06/16 03:33:13;49235.00;0.16;85.86;0.00;0.00;0.62;;;;;18.70;1.00;;;;;;2276300;61;1002;-86
2022/06/16 03:35:42;71260.00;0.24;123.94;0.00;0.00;0.62;;;;;18.70;1.00;;;;;;2276498;61;1992;-85
2022/06/16 03:38:13;416209.00;1.39;717.67;98264.00;0.33;170.58;;;;;18.80;1.00;;;;;;2276652;61;1389;-85
2022/06/16 03:40:40;1157990.00;3.86;2014.45;35782.00;0.12;62.59;;;;;18.80;1.00;;;;;;2276787;61;1137;-86
2022/06/16 03:43:08;1076735.00;3.59;1868.87;131808.00;0.44;228.45;;;;;19.00;1.00;;;;;;2276777;61;1067;-85
2022/06/16 03:45:35;272412.00;0.91;470.49;107708.00;0.36;186.87;;;;;19.10;1.00;;;;;;2276284;61;1058;-87
2022/06/16 03:48:02;142712.00;0.48;247.25;14541.00;0.05;25.82;;;;;19.20;1.00;;;;;;2276662;61;1427;-84
2022/06/16 03:50:29;39567.00;0.13;69.14;0.00;0.00;0.62;;;;;19.30;1.00;;;;;;2276659;61;1114;-85
2022/06/16 03:52:56;136020.00;0.45;235.71;0.00;0.00;0.62;;;;;19.80;1.00;;;;;;2276643;61;1122;-84
2022/06/16 03:55:25;56697.00;0.19;98.77;0.00;0.00;0.62;;;;;20.30;1.00;;;;;;2276650;61;1121;-85
2022/06/16 03:57:52;1102695.00;3.68;1915.24;11992.00;0.04;21.40;;;;;20.60;1.00;;;;;;2276234;61;2016;-84
2022/06/16 04:00:22;1172422.00;3.91;2040.44;78237.00;0.26;135.99;;;;;20.70;1.00;;;;;;2276563;61;1169;-86
2022/06/16 04:03:59;1565076.00;5.22;2766.18;101056.00;0.34;175.39;;;;;20.10;1.00;;;;;;2276606;61;1196;-86
2022/06/16 04:05:37;722096.00;2.41;1245.58;28858.00;0.10;50.61;;;;;19.60;1.00;;;;;;2276667;61;1916;-85
2022/06/16 04:08:05;1216479.00;4.05;2120.04;125938.00;0.42;218.32;;;;;19.60;1.00;;;;;;2276647;61;1394;-84
2022/06/16 04:10:33;746345.00;2.49;1287.70;76669.00;0.26;133.28;;;;;19.40;1.00;;;;;;2276763;61;1106;-85
2022/06/16 04:13:00;267141.00;0.89;461.43;73405.00;0.24;127.64;;;;;19.30;1.00;;;;;;2276685;61;969;-86
2022/06/16 04:15:27;100040.00;0.33;173.64;0.00;0.00;0.62;;;;;19.10;1.00;;;;;;2276657;61;1045;-85
2022/06/16 04:17:54;140775.00;0.47;243.91;0.00;0.00;0.62;;;;;19.10;1.00;;;;;;2276615;61;1932;-85
2022/06/16 04:20:21;43252.00;0.14;75.51;0.00;0.00;0.62;;;;;19.50;1.00;;;;;;2276544;61;2105;-85
2022/06/16 04:22:51;43926.00;0.15;76.68;0.00;0.00;0.62;;;;;20.10;1.00;;;;;;2276567;61;1188;-86
2022/06/16 04:25:20;0.00;0.00;0.62;0.00;0.00;0.62;;;;;20.70;1.00;;;;;;2276576;61;1752;-84
2022/06/16 04:27:49;0.00;0.00;0.62;0.00;0.00;0.62;;;;;21.20;1.00;;;;;;2276573;61;1310;-85
2022/06/16 04:30:17;276020.00;0.92;476.69;19333.00;0.06;34.12;;;;;21.50;1.00;;;;;;2276639;61;1202;-84
2022/06/16 04:32:44;1584507.00;5.28;2803.17;65514.00;0.22;114.01;;;;;21.70;1.00;;;;;;2276603;61;1151;-85
2022/06/16 04:35:12;1251564.00;4.17;2183.73;56978.00;0.19;99.25;;;;;21.40;1.00;;;;;;2276537;61;957;-85
2022/06/16 04:37:39;1106846.00;3.69;1922.67;44656.00;0.15;77.94;;;;;20.90;1.00;;;;;;2276426;61;1994;-84
2022/06/16 04:40:08;278908.00;0.93;481.66;70014.00;0.23;121.78;;;;;20.70;1.00;;;;;;2276443;61;1130;-86
2022/06/16 04:42:34;118817560.00;396.06;67949224.00;72687.00;0.24;126.40;;;;;21.00;1.00;;;;;;2276416;61;1089;-85
2022/06/16 04:45:03;273409.00;0.91;472.21;70850.00;0.24;123.23;;;;;21.00;1.00;;;;;;2275998;61;1021;-86
2022/06/16 04:47:29;140411.00;0.47;243.28;20808.00;0.07;36.67;;;;;21.20;1.00;;;;;;2276121;61;1293;-85
2022/06/16 04:49:56;375752.00;1.25;648.12;21990.00;0.07;38.72;;;;;21.40;1.00;;;;;;2276102;61;1040;-84
2022/06/16 04:52:23;411384.00;1.37;709.38;0.00;0.00;0.62;;;;;21.40;1.00;;;;;;2275940;61;1107;-85
2022/06/16 04:54:51;619341.00;2.06;1067.63;141553.00;0.47;245.25;;;;;21.60;1.00;;;;;;2276636;61;1034;-85
2022/06/16 04:57:17;78844.00;0.26;137.04;0.00;0.00;0.62;;;;;21.40;1.00;;;;;;2276431;61;1922;-84
2022/06/16 04:59:44;180622.00;0.60;312.56;15050.00;0.05;26.70;;;;;21.00;1.00;;;;;;2276520;61;1094;-83
2022/06/16 05:02:13;251094.00;0.84;433.83;19926.00;0.07;35.14;;;;;20.70;1.00;;;;;;2276412;61;1178;-85
2022/06/16 05:04:41;1199390.00;4.00;2089.12;131575.00;0.44;228.05;;;;;21.00;1.00;;;;;;2276504;61;1110;-85
2022/06/16 05:07:08;1969282.00;6.56;3561.44;105310.00;0.35;182.74;;;;;21.10;1.00;;;;;;2276434;61;1439;-85
2022/06/16 05:09:35;1276515.00;4.26;2229.19;42078.00;0.14;73.48;;;;;21.50;1.00;;;;;;2276503;61;1077;-85
2022/06/16 05:12:02;760626.00;2.54;1312.54;72672.00;0.24;126.38;;;;;21.80;1.00;;;;;;2276480;61;1112;-84
2022/06/16 05:14:29;338050.00;1.13;583.32;71856.00;0.24;124.97;;;;;21.90;1.00;;;;;;2276509;61;1126;-84
2022/06/16 05:16:56;39425.00;0.13;68.89;0.00;0.00;0.62;;;;;21.60;1.00;;;;;;2276428;61;2009;-86
2022/06/16 05:19:30;133671.00;0.45;231.66;0.00;0.00;0.62;;;;;21.70;1.00;;;;;;2276404;61;1026;-85
2022/06/16 05:21:56;39951.00;0.13;69.80;0.00;0.00;0.62;;;;;21.90;1.00;;;;;;2276338;61;1290;-85
2022/06/16 05:24:23;33957.00;0.11;59.43;0.00;0.00;0.62;;;;;22.50;1.00;;;;;;2276439;61;1005;-85
2022/06/16 05:26:50;185841.00;0.62;321.55;0.00;0.00;0.62;;;;;23.20;1.00;;;;;;2276126;61;1413;-85
2022/06/16 05:29:19;108988.00;0.36;189.08;0.00;0.00;0.62;;;;;23.40;1.00;;;;;;2276018;61;1094;-85
2022/06/16 05:31:46;533759.00;1.78;919.97;58300.00;0.19;101.54;;;;;23.10;1.00;;;;;;2276327;61;1120;-86
2022/06/16 05:34:13;33042.00;0.11;57.85;0.00;0.00;0.62;;;;;23.10;1.00;;;;;;2276368;61;1118;-85
2022/06/16 05:36:43;536407.00;1.79;924.53;12328.00;0.04;21.98;;;;;23.50;1.00;;;;;;2276247;61;2028;-85
2022/06/16 05:39:10;922487.00;3.07;1595.65;26025.00;0.09;45.70;;;;;23.70;1.00;;;;;;2276414;61;1132;-85
2022/06/16 05:41:37;1376160.00;4.59;2412.18;123456.00;0.41;214.04;;;;;23.80;1.00;;;;;;2276349;61;1141;-86
2022/06/16 05:44:04;1390738.00;4.64;2439.16;187143.00;0.62;323.79;;;;;24.00;1.00;;;;;;2276381;61;1055;-85
2022/06/16 05:46:31;168429.00;0.56;291.56;70470.00;0.23;122.57;;;;;24.40;1.00;;;;;;2276307;61;1306;-85
2022/06/16 05:48:58;201085.00;0.67;347.79;73207.00;0.24;127.30;;;;;24.60;1.00;;;;;;2276350;61;1135;-86
2022/06/16 05:51:25;48370.00;0.16;84.37;0.00;0.00;0.62;;;;;24.80;1.00;;;;;;2276281;61;1119;-85
2022/06/16 05:53:53;253297.00;0.84;437.62;3320.00;0.01;6.37;;;;;24.90;1.00;;;;;;2275895;61;1138;-85
2022/06/16 05:56:20;625125.00;2.08;1077.62;39188.00;0.13;68.48;;;;;25.10;1.00;;;;;;2275968;61;2013;-86
2022/06/16 05:58:48;544746.00;1.82;938.90;22385.00;0.07;39.40;;;;;25.60;1.00;;;;;;2276322;61;1055;-85
2022/06/16 06:01:15;464985.00;1.55;801.56;65692.00;0.22;114.32;;;;;25.90;1.00;;;;;;2276298;61;1182;-85
2022/06/16 06:03:44;118813.00;0.40;206.03;0.00;0.00;0.62;;;;;25.90;1.00;;;;;;2276310;61;949;-85
2022/06/16 06:06:11;288233.00;0.96;497.69;0.00;0.00;0.62;;;;;25.60;1.00;;;;;;2276325;61;1371;-85
2022/06/16 06:17:05;61861.00;0.21;107.69;0.00;0.00;0.62;;;;;26.60;1.00;;;;;;2276985;61;1918;-84
2022/06/16 06:19:32;116607.00;0.39;202.23;0.00;0.00;0.62;;;;;26.50;1.00;;;;;;2277017;61;1086;-84
2022/06/16 06:22:05;575737.00;1.92;992.34;57345.00;0.19;99.89;;;;;26.60;1.00;;;;;;2276987;61;1180;-84
2022/06/16 06:24:34;1188722.00;3.96;2069.84;107924.00;0.36;187.25;;;;;26.50;1.00;;;;;;2276941;61;1687;-84
2022/06/16 06:27:06;439398.00;1.46;757.55;78763.00;0.26;136.90;;;;;26.80;1.00;;;;;;2276842;61;1277;-84
2022/06/16 06:29:34;252163.00;0.84;435.67;0.00;0.00;0.62;;;;;26.90;1.00;;;;;;2276916;61;1491;-84
2022/06/16 06:32:01;30848.00;0.10;54.05;0.00;0.00;0.62;;;;;27.30;1.00;;;;;;2276966;61;1274;-85
2022/06/16 06:34:28;133014.00;0.44;230.53;0.00;0.00;0.62;;;;;27.40;1.00;;;;;;2276631;61;1063;-85
2022/06/16 06:36:55;67195.00;0.22;116.91;0.00;0.00;0.62;;;;;27.40;1.00;;;;;;2276908;61;1941;-84
2022/06/16 06:39:22;67163.00;0.22;116.86;0.00;0.00;0.62;;;;;27.80;1.00;;;;;;2276949;61;1070;-86
2022/06/16 06:41:49;165543.00;0.55;286.59;0.00;0.00;0.62;;;;;29.50;1.00;;;;;;2276936;61;1070;-87
2022/06/16 06:44:17;222811.00;0.74;385.18;0.00;0.00;0.62;;;;;30.70;1.00;;;;;;2276947;61;1154;-87
2022/06/16 06:46:44;1056693.00;3.52;1833.15;82474.00;0.27;143.31;;;;;32.00;1.00;;;;;;2276843;61;1257;-85
2022/06/16 06:49:11;1324002.00;4.41;2316.10;115569.00;0.39;200.44;;;;;33.00;1.00;;;;;;2276943;61;1102;-85
2022/06/16 06:51:38;895038.00;2.98;1547.41;107114.00;0.36;185.85;;;;;33.50;1.00;;;;;;2276878;61;1188;-87
2022/06/16 06:54:06;689718.00;2.30;1189.41;91985.00;0.31;159.74;;;;;34.20;1.00;;;;;;2276920;61;1037;-85
2022/06/16 06:56:34;257863.00;0.86;445.47;2213.00;0.01;4.46;;;;;34.70;1.00;;;;;;2276761;61;1400;-86
2022/06/16 06:59:05;71631.00;0.24;124.58;0.00;0.00;0.62;;;;;35.30;1.00;;;;;;2276862;61;1128;-86
2022/06/16 07:01:34;635427.00;2.12;1095.43;78013.00;0.26;135.60;;;;;35.40;1.00;;;;;;2276718;61;1175;-86
2022/06/16 07:04:02;328032.00;1.09;566.10;26410.00;0.09;46.37;;;;;36.90;1.00;;;;;;2276548;61;1044;-86
2022/06/16 07:06:29;207565.00;0.69;358.94;0.00;0.00;0.62;;;;;36.70;1.00;;;;;;2276870;61;1504;-85
2022/06/16 07:08:56;1499702.00;5.00;2642.56;100341.00;0.33;174.16;;;;;35.70;1.00;;;;;;2276880;61;1076;-85
2022/06/16 07:11:23;1610131.00;5.37;2852.12;137549.00;0.46;238.35;;;;;34.40;1.00;;;;;;2276793;61;1099;-86
2022/06/16 07:13:50;1582256.00;5.27;2798.88;112340.00;0.37;194.87;;;;;34.20;1.00;;;;;;2276832;61;1129;-87
2022/06/16 07:16:17;648572.00;2.16;1118.17;131140.00;0.44;227.30;;;;;34.00;1.00;;;;;;2276718;61;1295;-87
2022/06/16 07:18:46;202786.00;0.68;350.72;66980.00;0.22;116.54;;;;;33.30;1.00;;;;;;2276762;61;2000;-87
2022/06/16 07:21:14;262582.00;0.88;453.59;64507.00;0.22;112.27;;;;;32.40;1.00;;;;;;2276840;61;1046;-88
2022/06/16 07:23:41;294140.00;0.98;507.85;56484.00;0.19;98.40;;;;;31.70;1.00;;;;;;2276799;61;1121;-87
2022/06/16 07:26:09;348175.00;1.16;600.72;0.00;0.00;0.62;;;;;31.40;1.00;;;;;;2276740;61;1395;-86
2022/06/16 07:28:36;392148.00;1.31;676.31;0.00;0.00;0.62;;;;;31.50;1.00;;;;;;2276751;61;1184;-86
2022/06/16 07:31:03;554849.00;1.85;956.32;5605.00;0.02;10.33;;;;;33.00;1.00;;;;;;2276686;61;1110;-86
2022/06/16 07:33:30;209666.00;0.70;362.56;0.00;0.00;0.62;;;;;34.50;1.00;;;;;;2276762;61;1093;-85
2022/06/16 07:35:59;231634.00;0.77;400.36;0.00;0.00;0.62;;;;;34.70;1.00;;;;;;2276747;61;1100;-86
2022/06/16 07:38:27;397402.00;1.32;685.34;0.00;0.00;0.62;;;;;34.50;1.00;;;;;;2276644;61;1919;-87
2022/06/16 07:41:31;235179.00;0.78;406.46;0.00;0.00;0.62;;;;;33.80;1.00;;;;;;2276906;61;1102;-86
2022/06/16 07:43:42;277698.00;0.93;479.58;35267.00;0.12;61.70;;;;;33.00;1.00;;;;;;2276758;61;1351;-87
2022/06/16 07:46:09;705079.00;2.35;1216.05;57991.00;0.19;101.00;;;;;32.00;1.00;;;;;;2276710;61;1397;-87
2022/06/16 07:48:36;206261.00;0.69;356.70;0.00;0.00;0.62;;;;;31.20;1.00;;;;;;2276787;61;1114;-87
2022/06/16 07:51:05;60547.00;0.20;105.42;0.00;0.00;0.62;;;;;30.90;1.00;;;;;;2276692;61;1990;-87
2022/06/16 07:53:32;273284.00;0.91;471.99;0.00;0.00;0.62;;;;;30.90;1.00;;;;;;2276747;61;1059;-86
2022/06/16 07:56:00;33522.00;0.11;58.68;0.00;0.00;0.62;;;;;30.90;1.00;;;;;;2276743;61;1125;-86
2022/06/16 07:58:31;10805.00;0.04;19.34;0.00;0.00;0.62;;;;;31.40;1.00;;;;;;2276643;61;1990;-85
2022/06/16 08:00:58;59536.00;0.20;103.67;0.00;0.00;0.62;;;;;31.70;1.00;;;;;;2276641;61;1125;-84
2022/06/16 08:03:28;551840.00;1.84;951.13;14951.00;0.05;26.53;;;;;32.00;1.00;;;;;;2276552;61;1047;-87
2022/06/16 08:05:55;1112287.00;3.71;1932.41;155763.00;0.52;269.74;;;;;32.20;1.00;;;;;;2276368;61;1110;-86
2022/06/16 08:08:25;282706.00;0.94;488.19;0.00;0.00;0.62;;;;;33.30;1.00;;;;;;2276367;61;1360;-85
2022/06/16 08:10:52;729241.00;2.43;1257.98;19909.00;0.07;35.11;;;;;34.70;1.00;;;;;;2276580;61;1086;-86
2022/06/16 08:13:20;407256.00;1.36;702.28;78195.00;0.26;135.92;;;;;35.90;1.00;;;;;;2276323;61;1042;-87
2022/06/16 08:15:48;360490.00;1.20;621.89;0.00;0.00;0.62;;;;;36.00;1.00;;;;;;2276682;61;1045;-87
2022/06/16 08:18:18;122215.00;0.41;211.90;0.00;0.00;0.62;;;;;35.70;1.00;;;;;;2276458;61;1916;-86
2022/06/16 08:20:45;1019143.00;3.40;1766.41;13427.00;0.04;23.89;;;;;35.90;1.00;;;;;;2276557;61;1438;-87
2022/06/16 08:23:13;631015.00;2.10;1087.80;31063.00;0.10;54.42;;;;;35.70;1.00;;;;;;2276650;61;1102;-86
2022/06/16 08:25:43;116769.00;0.39;202.51;0.00;0.00;0.62;;;;;36.20;1.00;;;;;;2276449;61;977;-86
2022/06/16 08:28:12;144768.00;0.48;250.79;0.00;0.00;0.62;;;;;36.20;1.00;;;;;;2276621;61;1479;-87
2022/06/16 08:30:44;473492.00;1.58;816.20;10327.00;0.03;18.52;;;;;35.90;1.00;;;;;;2276587;61;2146;-86
2022/06/16 08:33:14;339966.00;1.13;586.62;55024.00;0.18;95.87;;;;;35.20;1.00;;;;;;2276505;61;1274;-87
2022/06/16 08:35:41;116528.00;0.39;202.09;0.00;0.00;0.62;;;;;35.50;1.00;;;;;;2276516;61;1051;-87
2022/06/16 08:38:19;122186.00;0.41;211.85;0.00;0.00;0.62;;;;;35.30;1.00;;;;;;2276242;61;1920;-86
2022/06/16 08:41:11;360174.00;1.20;621.35;111255.00;0.37;193.00;;;;;35.00;1.00;;;;;;2276576;61;1144;-86
2022/06/16 08:43:45;223507.00;0.75;386.38;8632.00;0.03;15.58;;;;;34.60;1.00;;;;;;2276630;61;1115;-86
2022/06/16 08:46:17;104464.00;0.35;181.28;0.00;0.00;0.62;;;;;34.80;1.00;;;;;;2276524;61;1380;-87
2022/06/16 08:48:58;57656.00;0.19;100.42;0.00;0.00;0.62;;;;;35.10;1.00;;;;;;2276548;61;1154;-87
2022/06/16 08:51:35;246588.00;0.82;426.08;0.00;0.00;0.62;;;;;35.90;1.00;;;;;;2276520;61;1098;-86
2022/06/16 08:54:17;725070.00;2.42;1250.74;18147.00;0.06;32.06;;;;;35.40;1.00;;;;;;2276636;61;1064;-87
2022/06/16 08:56:55;808409.00;2.69;1395.79;34142.00;0.11;59.75;;;;;35.20;1.00;;;;;;2276110;61;1462;-86
2022/06/16 08:59:31;328938.00;1.10;567.66;0.00;0.00;0.62;;;;;35.80;1.00;;;;;;2276149;61;1988;-86
2022/06/16 09:02:07;49979.00;0.17;87.15;0.00;0.00;0.62;;;;;35.90;1.00;;;;;;2276015;61;1406;-86
2022/06/16 09:04:40;182011.00;0.61;314.95;0.00;0.00;0.62;;;;;35.80;1.00;;;;;;2276044;61;1125;-85
2022/06/16 09:07:21;98441.00;0.33;170.88;0.00;0.00;0.62;;;;;35.80;1.00;;;;;;2275999;61;1359;-87
2022/06/16 09:10:23;369508.00;1.23;637.39;77786.00;0.26;135.21;;;;;36.20;1.00;;;;;;2276130;61;1063;-87
2022/06/16 09:13:47;311099.00;1.04;537.00;62822.00;0.21;109.35;;;;;36.70;1.00;;;;;;2276177;61;1134;-86
2022/06/16 09:16:29;52067.00;0.17;90.76;0.00;0.00;0.62;;;;;36.70;1.00;;;;;;2269161;61;1622;-87
2022/06/16 09:19:25;187246.00;0.62;323.97;0.00;0.00;0.62;;;;;36.90;1.00;;;;;;2276453;61;1910;-88
2022/06/16 09:22:05;443285.00;1.48;764.23;7388.00;0.02;13.42;;;;;37.10;1.00;;;;;;2276356;61;2323;-87
2022/06/16 09:24:45;55829.00;0.19;97.27;0.00;0.00;0.62;;;;;36.90;1.00;;;;;;2276394;61;2118;-87
2022/06/16 09:27:18;621933.00;2.07;1072.11;20366.00;0.07;35.90;;;;;35.50;1.00;;;;;;2276217;61;1381;-85
2022/06/16 09:29:52;377945.00;1.26;651.89;0.00;0.00;0.62;;;;;35.10;1.00;;;;;;2276130;61;1051;-86
2022/06/16 09:32:31;308964.00;1.03;533.33;0.00;0.00;0.62;;;;;34.50;1.00;;;;;;2276377;61;1163;-88
2022/06/16 09:35:12;884782.00;2.95;1529.41;8558.00;0.03;15.45;;;;;33.80;1.00;;;;;;2276365;61;1160;-86
2022/06/16 09:37:45;253912.00;0.85;438.68;0.00;0.00;0.62;;;;;32.80;1.00;;;;;;2276285;61;2012;-87
2022/06/16 09:40:18;761835.00;2.54;1314.64;130938.00;0.44;226.95;;;;;32.30;1.00;;;;;;2276383;61;1038;-86
2022/06/16 09:42:54;827299.00;2.76;1428.78;80211.00;0.27;139.40;;;;;32.50;1.00;;;;;;2276349;61;1116;-87
2022/06/16 09:45:29;385827.00;1.29;665.44;25988.00;0.09;45.64;;;;;32.70;1.00;;;;;;2276321;61;2042;-85
2022/06/16 09:48:05;257559.00;0.86;444.95;67432.00;0.22;117.32;;;;;32.20;1.00;;;;;;2275884;61;1378;-86
2022/06/16 09:50:41;90504.00;0.30;157.18;0.00;0.00;0.62;;;;;32.20;1.00;;;;;;2277007;61;1036;-86
2022/06/16 09:53:15;23470.00;0.08;41.28;0.00;0.00;0.62;;;;;32.60;1.00;;;;;;2276880;61;1058;-87
2022/06/16 09:55:49;530508.00;1.77;914.37;35093.00;0.12;61.40;;;;;32.80;1.00;;;;;;2276992;61;1135;-87
2022/06/16 09:58:24;51517.00;0.17;89.81;0.00;0.00;0.62;;;;;33.20;1.00;;;;;;2276766;61;2004;-87
2022/06/16 10:00:56;278540.00;0.93;481.03;13115.00;0.04;23.35;;;;;33.50;1.00;;;;;;2276795;61;1173;-86
2022/06/16 10:03:28;664797.00;2.22;1146.24;4868.00;0.02;9.06;;;;;33.40;1.00;;;;;;2276603;61;2219;-86
2022/06/16 10:06:08;489259.00;1.63;843.33;33864.00;0.11;59.27;;;;;33.30;1.00;;;;;;2276939;61;1155;-88
2022/06/16 10:08:43;272136.00;0.91;470.02;26857.00;0.09;47.14;;;;;33.30;1.00;;;;;;2276704;61;1184;-87
2022/06/16 10:11:26;482155.00;1.61;831.11;95016.00;0.32;164.97;;;;;33.00;1.00;;;;;;2276970;61;1029;-87